Last 24 Hours

O'Neill Sea Odyssey

Hourly Data | America/Los_Angeles
as of 1/19/22 12:45 PM PST
Date & Time Temp (°F) WindChill (°F) RH (%) Dew Pt (°F) Wind Dir (°) Wind Spd (mph) Wind Gust (mph) Latest Rain (In) Daily Rain (In) Daily Min Temp (°F) Daily Max Temp (°F) Daily Max Wind (mph)
1/19/22 - 1200 47.0 - 96 46.1 S | 182 3.7 7.9 0.00 0.00 43.1 48.2 10.3
1/19/22 - 1100 47.4 - 97 46.6 SSE | 165 3.2 6.8 0.00 0.00 43.1 48.2 10.3
1/19/22 - 1000 46.1 - 97 45.3 NNW | 343 1.7 4.6 0.00 0.00 43.1 46.8 10.3
1/19/22 - 0900 44.4 - 97 43.6 NNE | 33 2.9 5.7 0.00 0.00 43.1 46.2 10.3
1/19/22 - 0800 43.9 40.6 94 42.3 N | 356 5.6 9.6 0.00 0.00 43.1 46.1 10.3
1/19/22 - 0700 44.2 41.0 93 42.3 N | 350 5.7 8.8 0.00 0.00 43.1 46.1 10.3
1/19/22 - 0600 43.8 40.8 94 42.1 N | 357 5.1 7.2 0.00 0.00 43.1 46.1 10.3
1/19/22 - 0500 43.6 41.1 94 42.1 N | 2 4.5 7.0 0.00 0.00 43.1 46.1 10.3
1/19/22 - 0400 45.0 42.0 94 43.4 N | 354 5.5 8.6 0.00 0.00 44.4 46.1 10.3
1/19/22 - 0300 45.3 42.9 94 43.8 N | 356 4.8 7.7 0.00 0.00 44.6 46.1 10.3
1/19/22 - 0200 45.7 42.8 95 44.3 N | 7 5.5 10.3 0.00 0.00 45.2 46.1 10.3
1/19/22 - 0100 45.7 - 94 44.1 N | 9 3.8 6.1 0.00 0.00 45.4 46.0 6.1
1/19/22 - 0000 46.3 43.8 93 44.4 NNE | 13 5.1 8.1 0.00 0.00 45.7 56.3 10.5
1/18/22 - 2300 47.6 - 92 45.6 N | 6 3.0 4.6 0.00 0.00 45.7 56.3 10.5
1/18/22 - 2200 48.6 - 91 46.1 NNE | 19 3.4 6.4 0.00 0.00 45.7 56.3 10.5
1/18/22 - 2100 49.9 - 90 47.1 N | 8 2.6 4.6 0.00 0.00 45.7 56.3 10.5
1/18/22 - 2000 51.1 - 88 47.8 N | 359 1.6 4.4 0.00 0.00 45.7 56.3 10.5
1/18/22 - 1900 52.9 - 86 48.8 NE | 48 3.1 5.7 0.00 0.00 45.7 56.3 10.5
1/18/22 - 1800 55.3 - 81 49.4 S | 180 2.4 5.0 0.00 0.00 45.7 56.3 10.5
1/18/22 - 1700 55.6 - 81 49.8 SSW | 211 4.2 7.2 0.00 0.00 45.7 56.3 10.5
1/18/22 - 1600 54.0 - 82 48.8 SSE | 164 3.2 5.0 0.00 0.00 45.7 54.4 10.5
1/18/22 - 1500 53.7 - 82 48.3 S | 183 3.2 6.1 0.00 0.00 45.7 54.2 10.5
1/18/22 - 1400 53.4 - 83 48.6 SSE | 167 5.6 7.7 0.00 0.00 45.7 54.0 10.5
1/18/22 - 1300 53.0 - 84 48.4 S | 182 5.4 8.1 0.00 0.00 45.7 53.8 10.5
1/18/22 - 1200 52.4 - 87 48.5 SW | 219 6.4 10.5 0.00 0.00 45.7 52.9 10.5
Max 55.6 43.8 97 49.8 - 6.4 10.5 0.00 0.00 45.7 56.3 10.5
Avg 48.6 41.9 90 45.9 - 4.0 7.0 0.00 - - - -
Min 43.6 40.6 81 42.1 - 1.6 4.4 0.00 0.00 43.1 46.0 6.1
Total - - - - - - - 0.00 - - - -